Time;durP1;ratioP1;P1;durP2;ratioP2;P2;SDS_P1;SDS_P2;PMS_P1;PMS_P2;Temp;Humidity;BMP_temperature;BMP_pressure;BME280_temperature;BME280_humidity;BME280_pressure;Samples;Min_cycle;Max_cycle;Signal;HPM_P1;HPM_P2
2023/01/09 00:00:18;;;;;;;2.67;1.00;;;;;;;;;;5074641;28;20043;-57
2023/01/09 00:02:44;;;;;;;4.28;1.13;;;;;;;;;;5073071;28;20056;-57
2023/01/09 00:05:11;;;;;;;1.48;1.33;;;;;;;;;;5075567;28;20067;-57
2023/01/09 00:07:37;;;;;;;3.38;1.40;;;;;;;;;;5072451;28;20098;-59
2023/01/09 00:10:04;;;;;;;1.83;1.08;;;;;;;;;;5076074;28;20052;-57
2023/01/09 00:12:30;;;;;;;2.10;1.02;;;;;;;;;;5077968;28;20073;-57
2023/01/09 00:14:56;;;;;;;2.08;1.02;;;;;;;;;;5075669;28;20056;-58
2023/01/09 00:17:22;;;;;;;5.00;0.93;;;;;;;;;;5076730;28;20059;-57
2023/01/09 00:19:48;;;;;;;2.63;1.15;;;;;;;;;;5073685;28;20040;-57
2023/01/09 00:22:14;;;;;;;0.93;0.80;;;;;;;;;;5077207;28;20040;-57
2023/01/09 00:24:40;;;;;;;1.60;0.80;;;;;;;;;;5078902;28;20510;-57
2023/01/09 00:27:06;;;;;;;3.35;0.73;;;;;;;;;;5076782;28;20044;-57
2023/01/09 00:29:32;;;;;;;2.67;1.02;;;;;;;;;;5074310;28;20036;-57
2023/01/09 00:31:58;;;;;;;1.65;0.60;;;;;;;;;;5076462;28;20577;-57
2023/01/09 00:34:25;;;;;;;0.28;0.28;;;;;;;;;;5073678;28;20081;-57
2023/01/09 00:36:55;;;;;;;0.55;0.52;;;;;;;;;;5074304;28;20040;-60
2023/01/09 00:39:24;;;;;;;0.73;0.45;;;;;;;;;;5081041;28;20044;-57
2023/01/09 00:41:53;;;;;;;0.82;0.70;;;;;;;;;;5074727;28;20049;-57
2023/01/09 00:44:25;;;;;;;0.82;0.38;;;;;;;;;;5076992;28;20028;-59
2023/01/09 00:46:54;;;;;;;1.05;0.60;;;;;;;;;;5074517;28;20045;-57
2023/01/09 00:49:20;;;;;;;0.40;0.40;;;;;;;;;;5075435;28;20036;-56
2023/01/09 00:51:47;;;;;;;0.40;0.30;;;;;;;;;;5076956;28;20048;-57
2023/01/09 00:54:15;;;;;;;1.08;0.70;;;;;;;;;;5077505;28;20043;-55
2023/01/09 00:56:41;;;;;;;1.15;0.30;;;;;;;;;;5075643;28;20051;-57
2023/01/09 00:59:07;;;;;;;0.40;0.35;;;;;;;;;;5075123;28;20071;-57
2023/01/09 01:01:33;;;;;;;0.85;0.38;;;;;;;;;;5073672;28;20756;-57
2023/01/09 01:07:37;;;;;;;0.85;0.35;;;;;;;;;;5076995;28;20139;-57
2023/01/09 01:09:30;;;;;;;2.00;0.30;;;;;;;;;;5075038;28;20048;-57
2023/01/09 01:11:56;;;;;;;1.00;0.30;;;;;;;;;;5075435;28;20180;-57
2023/01/09 01:14:22;;;;;;;0.38;0.17;;;;;;;;;;5073400;28;20051;-59
2023/01/09 01:16:48;;;;;;;0.17;0.17;;;;;;;;;;5074207;28;20123;-59
2023/01/09 01:19:14;;;;;;;0.63;0.20;;;;;;;;;;5075364;28;20127;-58
2023/01/09 01:21:40;;;;;;;2.55;0.57;;;;;;;;;;5076578;28;20450;-56
2023/01/09 01:24:06;;;;;;;0.30;0.20;;;;;;;;;;5078900;28;20036;-57
2023/01/09 01:26:32;;;;;;;0.77;0.35;;;;;;;;;;5073710;28;20534;-57
2023/01/09 01:28:58;;;;;;;0.30;0.20;;;;;;;;;;5075446;28;20132;-57
2023/01/09 01:31:24;;;;;;;0.60;0.30;;;;;;;;;;5076660;28;20092;-59
2023/01/09 01:33:50;;;;;;;0.20;0.10;;;;;;;;;;5073775;28;20075;-57
2023/01/09 01:36:16;;;;;;;0.30;0.30;;;;;;;;;;5075521;28;20416;-57
2023/01/09 01:38:43;;;;;;;0.73;0.47;;;;;;;;;;5077255;28;20415;-57
2023/01/09 01:41:09;;;;;;;1.85;0.50;;;;;;;;;;5074524;28;20040;-57
2023/01/09 01:43:55;;;;;;;1.73;0.63;;;;;;;;;;5073120;28;20072;-57
2023/01/09 01:46:21;;;;;;;1.05;0.70;;;;;;;;;;5071900;28;20071;-57
2023/01/09 01:48:50;;;;;;;1.35;0.43;;;;;;;;;;5072514;28;20095;-57
2023/01/09 01:51:17;;;;;;;2.60;1.25;;;;;;;;;;5069480;28;20044;-59
2023/01/09 01:53:48;;;;;;;1.85;0.73;;;;;;;;;;5074915;28;20048;-57
2023/01/09 01:56:17;;;;;;;1.30;1.20;;;;;;;;;;5075985;28;20090;-56
2023/01/09 01:58:54;;;;;;;2.78;0.80;;;;;;;;;;5074080;28;20381;-59
2023/01/09 02:01:20;;;;;;;1.50;0.93;;;;;;;;;;5073721;28;20044;-57
2023/01/09 02:03:46;;;;;;;1.17;0.60;;;;;;;;;;5071587;28;20409;-57
2023/01/09 02:06:13;;;;;;;5.25;1.05;;;;;;;;;;5073565;28;20386;-57
2023/01/09 02:08:39;;;;;;;1.58;1.08;;;;;;;;;;5072933;28;20079;-57
2023/01/09 02:11:05;;;;;;;2.17;0.93;;;;;;;;;;5072990;28;20084;-59
2023/01/09 02:13:32;;;;;;;2.75;1.02;;;;;;;;;;5076606;28;20040;-57
2023/01/09 02:16:15;;;;;;;1.45;0.90;;;;;;;;;;5074614;28;20199;-57
2023/01/09 02:18:56;;;;;;;1.65;1.20;;;;;;;;;;5074442;28;20051;-59
2023/01/09 02:21:45;;;;;;;1.02;0.85;;;;;;;;;;5070800;28;20222;-57
2023/01/09 02:24:30;;;;;;;1.88;1.02;;;;;;;;;;5071803;28;20106;-57
2023/01/09 02:26:56;;;;;;;2.17;1.33;;;;;;;;;;5071014;28;20488;-57
2023/01/09 02:29:22;;;;;;;1.77;0.90;;;;;;;;;;5075975;28;20124;-57
2023/01/09 02:31:55;;;;;;;1.92;1.05;;;;;;;;;;5072879;28;20060;-57
2023/01/09 02:34:29;;;;;;;1.02;0.70;;;;;;;;;;5073485;28;20412;-59
2023/01/09 02:37:08;;;;;;;0.65;0.63;;;;;;;;;;5071427;28;20492;-57
2023/01/09 02:39:34;;;;;;;2.42;1.02;;;;;;;;;;5073834;28;20412;-57
2023/01/09 02:42:03;;;;;;;1.23;0.60;;;;;;;;;;5071304;28;20051;-57
2023/01/09 02:44:30;;;;;;;1.15;0.75;;;;;;;;;;5073158;28;20464;-57
2023/01/09 02:47:04;;;;;;;5.15;2.00;;;;;;;;;;5070668;28;20374;-57
2023/01/09 02:49:32;;;;;;;1.55;1.08;;;;;;;;;;5074401;28;20094;-57
2023/01/09 02:52:03;;;;;;;0.77;0.55;;;;;;;;;;5071414;28;20048;-58
2023/01/09 02:54:41;;;;;;;4.25;1.42;;;;;;;;;;5073692;28;20085;-57
2023/01/09 02:57:09;;;;;;;1.77;0.68;;;;;;;;;;5074739;28;20576;-57
2023/01/09 02:59:36;;;;;;;2.15;0.70;;;;;;;;;;5072398;28;20076;-57
2023/01/09 03:02:19;;;;;;;1.70;0.98;;;;;;;;;;5077543;28;20044;-59
2023/01/09 03:04:56;;;;;;;2.70;0.80;;;;;;;;;;5069212;28;20559;-57
2023/01/09 03:07:26;;;;;;;1.52;1.05;;;;;;;;;;5080271;28;20170;-57
2023/01/09 03:09:56;;;;;;;0.93;0.68;;;;;;;;;;5073755;28;20052;-59
2023/01/09 03:12:23;;;;;;;2.83;1.30;;;;;;;;;;5080440;28;20047;-57
2023/01/09 03:14:51;;;;;;;1.15;0.73;;;;;;;;;;5074407;28;20083;-59
2023/01/09 03:17:22;;;;;;;2.67;0.80;;;;;;;;;;5076583;28;20048;-58
2023/01/09 03:19:49;;;;;;;1.05;0.85;;;;;;;;;;5074337;28;20045;-57
2023/01/09 03:22:15;;;;;;;1.60;1.15;;;;;;;;;;5076008;28;20036;-57
2023/01/09 03:24:41;;;;;;;0.93;0.80;;;;;;;;;;5075284;28;20669;-55
2023/01/09 03:27:08;;;;;;;2.67;0.90;;;;;;;;;;5075019;28;20083;-57
2023/01/09 03:29:34;;;;;;;3.63;1.13;;;;;;;;;;5075585;28;20052;-59
2023/01/09 03:32:00;;;;;;;2.88;0.90;;;;;;;;;;5074618;28;20058;-57
2023/01/09 03:34:26;;;;;;;1.48;0.80;;;;;;;;;;5076287;28;20119;-57
2023/01/09 03:36:52;;;;;;;2.17;0.95;;;;;;;;;;5073100;28;20124;-57
2023/01/09 03:39:18;;;;;;;1.55;0.80;;;;;;;;;;5078637;28;20040;-57
2023/01/09 03:41:44;;;;;;;;;;;;;;;;;;5075097;28;20409;-57
2023/01/09 03:44:10;;;;;;;;;;;;;;;;;;5073342;28;19925;-57
2023/01/09 03:46:35;;;;;;;;;;;;;;;;;;5076043;28;19964;-57
2023/01/09 03:49:01;;;;;;;;;;;;;;;;;;5074780;28;20356;-58
2023/01/09 03:51:27;;;;;;;;;;;;;;;;;;5075981;28;19935;-57
2023/01/09 03:53:53;;;;;;;;;;;;;;;;;;5074507;28;19931;-57
2023/01/09 03:56:19;;;;;;;;;;;;;;;;;;5080600;28;19924;-57
2023/01/09 03:58:45;;;;;;;;;;;;;;;;;;5067914;28;20387;-57
2023/01/09 04:01:11;;;;;;;;;;;;;;;;;;5075361;28;20294;-57
2023/01/09 04:03:37;;;;;;;;;;;;;;;;;;5075384;28;20399;-57
2023/01/09 04:06:03;;;;;;;;;;;;;;;;;;5076133;28;19933;-59
2023/01/09 04:08:29;;;;;;;;;;;;;;;;;;5076131;28;19925;-57
2023/01/09 04:10:55;;;;;;;;;;;;;;;;;;5073671;28;19948;-56
2023/01/09 04:13:21;;;;;;;;;;;;;;;;;;5074700;28;20384;-57
2023/01/09 04:15:47;;;;;;;;;;;;;;;;;;5073912;28;19924;-58
2023/01/09 04:18:13;;;;;;;1.80;1.27;;;;;;;;;;5074261;28;19932;-57
2023/01/09 04:20:39;;;;;;;;;;;;;;;;;;5074937;28;20047;-57
2023/01/09 04:23:05;;;;;;;;;;;;;;;;;;5074388;28;19947;-60
2023/01/09 04:25:31;;;;;;;;;;;;;;;;;;5078693;28;20439;-57
2023/01/09 04:27:57;;;;;;;;;;;;;;;;;;5074401;28;19921;-57
2023/01/09 04:30:23;;;;;;;;;;;;;;;;;;5075868;28;19951;-57
2023/01/09 04:32:50;;;;;;;;;;;;;;;;;;5072451;28;19967;-57
2023/01/09 04:35:16;;;;;;;;;;;;;;;;;;5075486;28;19920;-57
2023/01/09 04:37:42;;;;;;;;;;;;;;;;;;5074873;28;19992;-57
2023/01/09 04:40:09;;;;;;;;;;;;;;;;;;5073174;28;19931;-57
2023/01/09 04:42:35;;;;;;;;;;;;;;;;;;5075299;28;19993;-57
2023/01/09 04:45:01;;;;;;;;;;;;;;;;;;5073954;28;20359;-57
2023/01/09 04:47:26;;;;;;;;;;;;;;;;;;5074665;28;20533;-59
2023/01/09 04:49:52;;;;;;;;;;;;;;;;;;5077026;28;19924;-57
2023/01/09 04:52:18;;;;;;;;;;;;;;;;;;5077490;28;20406;-57
2023/01/09 04:54:44;;;;;;;;;;;;;;;;;;5072656;28;20443;-58
2023/01/09 04:57:10;;;;;;;;;;;;;;;;;;5076438;28;20057;-57
2023/01/09 04:59:36;;;;;;;;;;;;;;;;;;5067686;28;20370;-57
2023/01/09 05:02:02;;;;;;;;;;;;;;;;;;5072708;28;19924;-57
2023/01/09 05:04:28;;;;;;;;;;;;;;;;;;5075210;28;19924;-57
2023/01/09 05:06:54;;;;;;;;;;;;;;;;;;5073287;28;19920;-57
2023/01/09 05:09:21;;;;;;;;;;;;;;;;;;5076214;28;19924;-57
2023/01/09 05:11:47;;;;;;;;;;;;;;;;;;5072788;28;19956;-57
2023/01/09 05:14:12;;;;;;;;;;;;;;;;;;5076476;28;20354;-57
2023/01/09 05:16:38;;;;;;;;;;;;;;;;;;5073437;28;20019;-57
2023/01/09 05:19:04;;;;;;;;;;;;;;;;;;5073282;28;20023;-57
2023/01/09 05:21:30;;;;;;;;;;;;;;;;;;5073811;28;19942;-57
2023/01/09 05:23:56;;;;;;;3.47;2.17;;;;;;;;;;5075477;28;19926;-57
2023/01/09 05:26:23;;;;;;;4.00;2.70;;;;;;;;;;5075375;28;20039;-59
2023/01/09 05:28:53;;;;;;;2.67;2.47;;;;;;;;;;5075037;28;20727;-58
2023/01/09 05:31:19;;;;;;;3.97;2.70;;;;;;;;;;5073191;28;20044;-57
2023/01/09 05:33:45;;;;;;;5.60;2.90;;;;;;;;;;5071687;28;20040;-57
2023/01/09 05:36:11;;;;;;;4.47;3.30;;;;;;;;;;5072517;28;20043;-56
2023/01/09 05:38:37;;;;;;;3.97;2.83;;;;;;;;;;5074323;28;20139;-57
2023/01/09 05:41:03;;;;;;;3.60;3.20;;;;;;;;;;5074618;28;20058;-58
2023/01/09 05:43:30;;;;;;;5.55;4.00;;;;;;;;;;5077684;28;20051;-59
2023/01/09 05:45:56;;;;;;;4.47;3.92;;;;;;;;;;5070337;28;20090;-57
2023/01/09 05:48:22;;;;;;;3.58;3.22;;;;;;;;;;5073128;28;20407;-57
2023/01/09 05:50:48;;;;;;;3.85;3.28;;;;;;;;;;5072205;28;20048;-57
2023/01/09 05:53:14;;;;;;;5.75;3.70;;;;;;;;;;5074627;28;20101;-57
2023/01/09 05:55:40;;;;;;;6.07;4.13;;;;;;;;;;5078117;28;20041;-57
2023/01/09 05:58:06;;;;;;;5.25;4.72;;;;;;;;;;5075149;28;20119;-57
2023/01/09 06:00:32;;;;;;;5.05;4.57;;;;;;;;;;5073412;28;20470;-57
2023/01/09 06:02:58;;;;;;;7.60;6.13;;;;;;;;;;5076680;28;20052;-57
2023/01/09 06:05:24;;;;;;;5.78;5.28;;;;;;;;;;5073751;28;20040;-57
2023/01/09 06:07:50;;;;;;;6.65;5.85;;;;;;;;;;5075768;28;20557;-57
2023/01/09 06:10:16;;;;;;;7.72;6.40;;;;;;;;;;5075668;28;20052;-57
2023/01/09 06:12:45;;;;;;;8.05;6.97;;;;;;;;;;5074548;28;20487;-57
2023/01/09 06:15:11;;;;;;;7.80;6.68;;;;;;;;;;5076544;28;20036;-57
2023/01/09 06:17:37;;;;;;;10.38;8.13;;;;;;;;;;5076862;28;20139;-57
2023/01/09 06:20:04;;;;;;;9.45;8.02;;;;;;;;;;5074922;28;20499;-57
2023/01/09 06:22:30;;;;;;;9.50;7.90;;;;;;;;;;5075256;28;20308;-56
2023/01/09 06:24:56;;;;;;;11.75;8.60;;;;;;;;;;5073154;28;20089;-57
2023/01/09 06:27:22;;;;;;;9.32;7.65;;;;;;;;;;5075633;28;20495;-59
2023/01/09 06:29:48;;;;;;;12.10;9.10;;;;;;;;;;5072598;28;20044;-59
2023/01/09 06:32:14;;;;;;;10.88;8.02;;;;;;;;;;5071747;28;20494;-57
2023/01/09 06:34:40;;;;;;;9.13;8.23;;;;;;;;;;5075578;28;20040;-57
2023/01/09 06:37:05;;;;;;;8.85;7.95;;;;;;;;;;5075932;28;20112;-57
2023/01/09 06:39:31;;;;;;;9.13;8.13;;;;;;;;;;5076030;28;20492;-57
2023/01/09 06:41:57;;;;;;;12.15;8.68;;;;;;;;;;5072370;28;20047;-56
2023/01/09 06:44:23;;;;;;;12.10;8.95;;;;;;;;;;5075799;28;20087;-56
2023/01/09 06:46:49;;;;;;;11.02;8.88;;;;;;;;;;5074399;28;20085;-57
2023/01/09 06:49:16;;;;;;;9.55;8.55;;;;;;;;;;5071337;28;20131;-57
2023/01/09 06:51:42;;;;;;;8.60;7.43;;;;;;;;;;5077640;28;20048;-56
2023/01/09 06:54:08;;;;;;;8.90;7.20;;;;;;;;;;5073176;28;20037;-58
2023/01/09 06:56:34;;;;;;;10.55;9.45;;;;;;;;;;5067484;28;20086;-57
2023/01/09 06:59:01;;;;;;;9.23;7.85;;;;;;;;;;5074919;28;20479;-56
2023/01/09 07:01:27;;;;;;;9.23;8.15;;;;;;;;;;5073194;28;20487;-57
2023/01/09 07:03:53;;;;;;;10.15;9.15;;;;;;;;;;5074358;28;20044;-58
2023/01/09 07:06:19;;;;;;;;;;;;;;;;;;5074335;28;21499;-57
2023/01/09 07:08:44;;;;;;;12.75;8.60;;;;;;;;;;5075392;28;20350;-56
2023/01/09 07:11:10;;;;;;;10.70;8.30;;;;;;;;;;5077409;28;20044;-57
2023/01/09 07:13:37;;;;;;;13.02;10.45;;;;;;;;;;5073834;28;20415;-58
2023/01/09 07:16:04;;;;;;;11.25;9.27;;;;;;;;;;5070335;28;20063;-57
2023/01/09 07:18:30;;;;;;;12.05;10.02;;;;;;;;;;5073533;28;20076;-57
2023/01/09 07:20:56;;;;;;;12.63;9.85;;;;;;;;;;5074992;28;20040;-56
2023/01/09 07:23:22;;;;;;;13.15;9.95;;;;;;;;;;5072735;28;20106;-59
2023/01/09 07:25:49;;;;;;;15.98;9.50;;;;;;;;;;5072579;28;20048;-57
2023/01/09 07:28:15;;;;;;;13.00;9.40;;;;;;;;;;5073588;28;20492;-57
2023/01/09 07:30:41;;;;;;;11.88;9.25;;;;;;;;;;5075406;28;20090;-57
2023/01/09 07:33:07;;;;;;;13.00;9.57;;;;;;;;;;5077196;28;20059;-57
2023/01/09 07:35:33;;;;;;;9.98;9.00;;;;;;;;;;5076401;28;20377;-57
2023/01/09 07:37:59;;;;;;;9.10;7.63;;;;;;;;;;5073363;28;20043;-57
2023/01/09 07:40:25;;;;;;;7.60;6.68;;;;;;;;;;5077831;28;20302;-59
2023/01/09 07:42:55;;;;;;;10.57;7.60;;;;;;;;;;5071534;28;20098;-57
2023/01/09 07:45:21;;;;;;;11.38;7.43;;;;;;;;;;5075908;28;20090;-60
2023/01/09 07:47:47;;;;;;;8.80;7.80;;;;;;;;;;5083017;28;20050;-57
2023/01/09 07:50:13;;;;;;;8.20;7.20;;;;;;;;;;5074897;28;20051;-57
2023/01/09 07:52:39;;;;;;;8.25;7.45;;;;;;;;;;5079776;28;20056;-57
2023/01/09 07:55:05;;;;;;;7.38;6.25;;;;;;;;;;5081503;28;20075;-59
2023/01/09 07:57:31;;;;;;;8.75;6.60;;;;;;;;;;5077665;28;20493;-57
2023/01/09 07:59:59;;;;;;;6.50;5.90;;;;;;;;;;5078031;28;20124;-57
2023/01/09 08:02:26;;;;;;;7.13;5.80;;;;;;;;;;5082326;28;20093;-57
2023/01/09 08:04:52;;;;;;;6.38;5.40;;;;;;;;;;5076960;28;20053;-57
2023/01/09 08:07:18;;;;;;;7.25;5.72;;;;;;;;;;5084048;28;20051;-57
2023/01/09 08:09:44;;;;;;;6.05;5.43;;;;;;;;;;5079518;28;20508;-60
2023/01/09 08:12:10;;;;;;;10.98;6.38;;;;;;;;;;5087606;28;20139;-59
2023/01/09 08:14:36;;;;;;;8.48;6.38;;;;;;;;;;5076124;28;20581;-51
2023/01/09 08:17:02;;;;;;;5.95;5.28;;;;;;;;;;5068092;28;20052;-55
2023/01/09 08:19:28;;;;;;;5.85;5.25;;;;;;;;;;5070034;28;20158;-52
2023/01/09 08:21:54;;;;;;;5.35;4.82;;;;;;;;;;5084948;28;20131;-61
2023/01/09 08:24:20;;;;;;;5.80;4.45;;;;;;;;;;5075781;28;20542;-61
2023/01/09 08:26:46;;;;;;;4.97;4.30;;;;;;;;;;5078193;28;20053;-61
2023/01/09 08:29:12;;;;;;;5.18;4.45;;;;;;;;;;5085253;28;20051;-62
2023/01/09 08:31:38;;;;;;;4.90;4.40;;;;;;;;;;5079763;28;20958;-61
2023/01/09 08:34:04;;;;;;;4.43;4.03;;;;;;;;;;5082660;28;20048;-62
2023/01/09 08:36:30;;;;;;;3.83;3.53;;;;;;;;;;5075912;28;20051;-61
2023/01/09 08:38:56;;;;;;;3.58;3.25;;;;;;;;;;5073288;28;20049;-61
2023/01/09 08:47:04;;;;;;;3.65;3.35;;;;;;;;;;5076700;28;20048;-62
2023/01/09 08:49:30;;;;;;;2.97;2.78;;;;;;;;;;5078156;28;20515;-62
2023/01/09 08:51:57;;;;;;;2.95;2.55;;;;;;;;;;5082232;28;20044;-60
2023/01/09 08:54:22;;;;;;;;;;;;;;;;;;5080757;28;20036;-61
2023/01/09 08:56:49;;;;;;;3.22;2.92;;;;;;;;;;5076034;28;19920;-61
2023/01/09 08:59:15;;;;;;;3.45;3.15;;;;;;;;;;5085198;28;20082;-62
2023/01/09 09:01:41;;;;;;;;;;;;;;;;;;5080550;28;20115;-62
2023/01/09 09:04:07;;;;;;;;;;;;;;;;;;5079627;28;19999;-62
2023/01/09 09:06:32;;;;;;;;;;;;;;;;;;5066543;28;19928;-58
2023/01/09 09:09:02;;;;;;;;;;;;;;;;;;5067614;28;19933;-58
2023/01/09 09:11:28;;;;;;;;;;;;;;;;;;5067343;28;20670;-62
2023/01/09 09:13:53;;;;;;;;;;;;;;;;;;5067219;28;19929;-62
2023/01/09 09:16:19;;;;;;;5.07;2.33;;;;;;;;;;5072024;28;19928;-62
2023/01/09 09:18:45;;;;;;;3.17;2.78;;;;;;;;;;5073902;28;20384;-62
2023/01/09 09:21:11;;;;;;;3.67;2.97;;;;;;;;;;5068565;28;20048;-62
2023/01/09 09:23:37;;;;;;;2.75;2.28;;;;;;;;;;5076957;28;20393;-62
2023/01/09 09:26:04;;;;;;;3.15;2.20;;;;;;;;;;5087192;28;20495;-62
2023/01/09 09:28:30;;;;;;;3.92;2.63;;;;;;;;;;5086280;28;20075;-62
2023/01/09 09:30:56;;;;;;;3.67;2.75;;;;;;;;;;5086167;28;20052;-62
2023/01/09 09:33:22;;;;;;;3.50;2.05;;;;;;;;;;5085515;28;20055;-62
2023/01/09 09:35:48;;;;;;;;;;;;;;;;;;5086306;28;20564;-62
2023/01/09 09:38:18;;;;;;;4.28;2.97;;;;;;;;;;5085107;28;19995;-62
2023/01/09 09:40:56;;;;;;;2.90;2.65;;;;;;;;;;5085094;28;20089;-61
2023/01/09 09:46:34;;;;;;;3.42;3.13;;;;;;;;;;5084493;28;20040;-62
2023/01/09 09:49:00;;;;;;;;;;;;;;;;;;5084336;28;20051;-62
2023/01/09 09:51:26;;;;;;;;;;;;;;;;;;5085012;28;19924;-61
2023/01/09 09:53:52;;;;;;;;;;;;;;;;;;5086589;28;20392;-62
2023/01/09 09:56:18;;;;;;;;;;;;;;;;;;5085760;28;19927;-62
2023/01/09 09:58:44;;;;;;;;;;;;;;;;;;5084380;28;19981;-62
2023/01/09 10:01:10;;;;;;;;;;;;;;;;;;5077333;28;19959;-62
2023/01/09 10:03:37;;;;;;;;;;;;;;;;;;5078467;28;19998;-63
2023/01/09 10:06:15;;;;;;;2.63;2.05;;;;;;;;;;5081630;28;20138;-60
2023/01/09 10:08:47;;;;;;;3.17;2.88;;;;;;;;;;5086266;28;20055;-61
2023/01/09 10:11:21;;;;;;;5.38;2.33;;;;;;;;;;5084487;28;20463;-61
2023/01/09 10:14:05;;;;;;;3.00;2.42;;;;;;;;;;5085683;28;20044;-61
2023/01/09 10:16:50;;;;;;;4.13;2.80;;;;;;;;;;5085772;28;20048;-61
2023/01/09 10:19:28;;;;;;;4.50;3.05;;;;;;;;;;5079612;28;20062;-61
2023/01/09 10:22:06;;;;;;;2.65;2.45;;;;;;;;;;5072145;28;20442;-61
2023/01/09 10:24:37;;;;;;;3.28;2.45;;;;;;;;;;5074465;28;20044;-61
2023/01/09 10:27:10;;;;;;;3.38;2.45;;;;;;;;;;5076000;28;20097;-61
2023/01/09 10:29:53;;;;;;;2.83;2.40;;;;;;;;;;5074494;28;20040;-61
2023/01/09 10:32:30;;;;;;;2.33;2.00;;;;;;;;;;5070548;28;20142;-62
2023/01/09 10:35:14;;;;;;;3.28;2.50;;;;;;;;;;5073744;28;20052;-61
2023/01/09 10:37:43;;;;;;;2.78;2.47;;;;;;;;;;5077588;28;20044;-61
2023/01/09 10:40:24;;;;;;;3.03;2.42;;;;;;;;;;5070425;28;20586;-61
2023/01/09 10:42:57;;;;;;;2.47;2.03;;;;;;;;;;5081214;28;20048;-62
2023/01/09 10:45:22;;;;;;;;;;;;;;;;;;5083891;28;20403;-61
2023/01/09 10:47:49;;;;;;;2.17;2.00;;;;;;;;;;5083876;28;19930;-62
2023/01/09 10:50:22;;;;;;;2.38;1.95;;;;;;;;;;5083202;28;20044;-61
2023/01/09 10:52:48;;;;;;;;;;;;;;;;;;5083429;28;20056;-61
2023/01/09 10:55:14;;;;;;;;;;;;;;;;;;5083959;28;20057;-61
2023/01/09 10:57:40;;;;;;;;;;;;;;;;;;5084324;28;20041;-62
2023/01/09 11:00:06;;;;;;;;;;;;;;;;;;5084737;28;19931;-62
2023/01/09 11:02:33;;;;;;;1.42;1.20;;;;;;;;;;5084313;28;20372;-62
2023/01/09 11:04:59;;;;;;;1.75;1.30;;;;;;;;;;5076192;28;20048;-62
2023/01/09 11:07:31;;;;;;;2.40;1.30;;;;;;;;;;5076822;28;20040;-62
2023/01/09 11:10:01;;;;;;;1.17;1.10;;;;;;;;;;5079794;28;20205;-62
2023/01/09 11:12:29;;;;;;;1.77;1.25;;;;;;;;;;5069143;28;20651;-62
2023/01/09 11:14:55;;;;;;;2.63;1.65;;;;;;;;;;5063635;28;20591;-61
2023/01/09 11:17:25;;;;;;;1.48;1.35;;;;;;;;;;5063891;28;20128;-62
2023/01/09 11:20:04;;;;;;;1.33;1.23;;;;;;;;;;5064363;28;20097;-62
2023/01/09 11:22:41;;;;;;;1.33;1.20;;;;;;;;;;5066738;28;20048;-62
2023/01/09 11:25:11;;;;;;;1.38;1.10;;;;;;;;;;5068485;28;20113;-62
2023/01/09 11:27:37;;;;;;;1.80;1.20;;;;;;;;;;5067834;28;20488;-62
2023/01/09 11:30:09;;;;;;;2.90;1.30;;;;;;;;;;5068913;28;20051;-62
2023/01/09 11:32:35;;;;;;;1.70;1.45;;;;;;;;;;5069216;28;20044;-62
2023/01/09 11:35:05;;;;;;;1.67;1.25;;;;;;;;;;5068066;28;20048;-63
2023/01/09 11:37:31;;;;;;;1.55;0.95;;;;;;;;;;5068560;28;20135;-62
2023/01/09 11:39:58;;;;;;;1.45;1.35;;;;;;;;;;5068586;28;20068;-61
2023/01/09 11:45:14;;;;;;;1.80;1.65;;;;;;;;;;5068610;28;20056;-62
2023/01/09 11:47:40;;;;;;;2.88;1.50;;;;;;;;;;5068737;28;20583;-62
2023/01/09 11:50:17;;;;;;;1.48;1.38;;;;;;;;;;5067657;28;20495;-61
2023/01/09 11:52:43;;;;;;;3.83;2.55;;;;;;;;;;5068646;28;20049;-62
2023/01/09 11:55:11;;;;;;;3.58;2.13;;;;;;;;;;5068641;28;20068;-61
2023/01/09 11:57:37;;;;;;;6.85;2.50;;;;;;;;;;5068005;28;20152;-62
2023/01/09 12:00:23;;;;;;;2.58;1.90;;;;;;;;;;5076780;28;20041;-61
2023/01/09 12:03:08;;;;;;;3.70;2.20;;;;;;;;;;5079261;28;20117;-61
2023/01/09 12:05:34;;;;;;;4.45;2.83;;;;;;;;;;5080481;28;20048;-61
2023/01/09 12:08:04;;;;;;;6.28;3.15;;;;;;;;;;5075365;28;20051;-61
2023/01/09 12:10:59;;;;;;;3.58;2.80;;;;;;;;;;5070730;28;20056;-62
2023/01/09 12:13:33;;;;;;;4.30;2.65;;;;;;;;;;5071525;28;20060;-62
2023/01/09 12:16:08;;;;;;;4.55;2.72;;;;;;;;;;5067974;28;20084;-62
2023/01/09 12:18:46;;;;;;;5.93;3.30;;;;;;;;;;5067480;28;20561;-63
2023/01/09 12:21:19;;;;;;;3.92;2.83;;;;;;;;;;5075449;28;20044;-62
2023/01/09 12:23:55;;;;;;;3.85;2.72;;;;;;;;;;5072600;28;20043;-62
2023/01/09 12:26:24;;;;;;;3.58;3.00;;;;;;;;;;5077156;28;20079;-61
2023/01/09 12:28:52;;;;;;;4.80;2.78;;;;;;;;;;5065625;28;20040;-62
2023/01/09 12:31:28;;;;;;;5.00;3.72;;;;;;;;;;5067438;28;20040;-62
2023/01/09 12:34:16;;;;;;;3.80;3.30;;;;;;;;;;5084773;28;20056;-61
2023/01/09 12:37:04;;;;;;;3.30;3.00;;;;;;;;;;5072817;28;20041;-62
2023/01/09 12:39:50;;;;;;;3.50;3.20;;;;;;;;;;5075740;28;20505;-61
2023/01/09 12:42:16;;;;;;;;;;;;;;;;;;5084529;28;20489;-62
2023/01/09 12:45:04;;;;;;;5.10;4.07;;;;;;;;;;5084912;28;20036;-62
2023/01/09 12:47:44;;;;;;;4.90;4.00;;;;;;;;;;5074516;28;20150;-62
2023/01/09 12:50:10;;;;;;;;;;;;;;;;;;5083712;28;20058;-61
2023/01/09 12:52:36;;;;;;;;;;;;;;;;;;5082706;28;20065;-62
2023/01/09 12:55:02;;;;;;;;;;;;;;;;;;5078210;28;20460;-61
2023/01/09 12:57:28;;;;;;;;;;;;;;;;;;5080391;28;20048;-61
2023/01/09 12:59:54;;;;;;;;;;;;;;;;;;5070208;28;20048;-62
2023/01/09 13:02:19;;;;;;;;;;;;;;;;;;5066687;28;20106;-63
2023/01/09 13:04:45;;;;;;;;;;;;;;;;;;5066672;28;19927;-62
2023/01/09 13:07:11;;;;;;;;;;;;;;;;;;5064425;28;19921;-62
2023/01/09 13:09:37;;;;;;;;;;;;;;;;;;5077952;28;20548;-62
2023/01/09 13:12:03;;;;;;;;;;;;;;;;;;5066954;28;19920;-62
2023/01/09 13:14:29;;;;;;;;;;;;;;;;;;5081311;28;19920;-62
2023/01/09 13:16:55;;;;;;;5.07;3.42;;;;;;;;;;5085294;28;20007;-62
2023/01/09 13:19:24;;;;;;;6.07;4.90;;;;;;;;;;5077570;28;20719;-62
2023/01/09 13:21:51;;;;;;;4.70;4.30;;;;;;;;;;5079803;28;20048;-62
2023/01/09 13:24:20;;;;;;;5.15;3.95;;;;;;;;;;5081958;28;20040;-62
2023/01/09 13:26:48;;;;;;;6.10;4.35;;;;;;;;;;5083424;28;20048;-61
2023/01/09 13:29:16;;;;;;;4.78;4.13;;;;;;;;;;5085606;28;20058;-62
2023/01/09 13:31:52;;;;;;;8.60;4.35;;;;;;;;;;5081829;28;20051;-62
2023/01/09 13:34:23;;;;;;;4.10;3.80;;;;;;;;;;5075071;28;20067;-62
2023/01/09 13:36:53;;;;;;;6.35;4.78;;;;;;;;;;5076731;28;20059;-62
2023/01/09 13:39:20;;;;;;;6.00;4.80;;;;;;;;;;5068157;28;19924;-62
2023/01/09 13:44:32;;;;;;;7.70;5.57;;;;;;;;;;5086065;28;20035;-61
2023/01/09 13:46:59;;;;;;;9.18;5.45;;;;;;;;;;5086523;28;20051;-62
2023/01/09 13:49:40;;;;;;;5.80;5.00;;;;;;;;;;5076354;28;20055;-62
2023/01/09 13:52:25;;;;;;;7.57;5.13;;;;;;;;;;5066564;28;20144;-61
2023/01/09 13:54:51;;;;;;;;;;;;;;;;;;5077737;28;19920;-62
2023/01/09 13:57:17;;;;;;;6.50;4.80;;;;;;;;;;5083169;28;19927;-62
2023/01/09 13:59:44;;;;;;;8.27;5.40;;;;;;;;;;5085507;28;19935;-62
2023/01/09 14:02:29;;;;;;;7.72;5.20;;;;;;;;;;5084605;28;20476;-62
2023/01/09 14:04:55;;;;;;;5.93;5.07;;;;;;;;;;5073352;28;20040;-62
2023/01/09 14:07:25;;;;;;;4.38;3.95;;;;;;;;;;5074192;28;20051;-62
2023/01/09 14:10:02;;;;;;;5.82;4.38;;;;;;;;;;5079990;28;20047;-62
2023/01/09 14:12:28;;;;;;;7.65;3.80;;;;;;;;;;5074692;28;20044;-61
2023/01/09 14:14:58;;;;;;;7.55;5.18;;;;;;;;;;5078506;28;20139;-61
2023/01/09 14:17:30;;;;;;;5.60;4.32;;;;;;;;;;5082816;28;20052;-61
2023/01/09 14:19:56;;;;;;;;;;;;;;;;;;5081675;28;20048;-61
2023/01/09 14:22:24;;;;;;;4.18;3.40;;;;;;;;;;5075224;28;20042;-61
2023/01/09 14:24:51;;;;;;;4.93;3.60;;;;;;;;;;5077782;28;20048;-61
2023/01/09 14:27:36;;;;;;;5.28;4.07;;;;;;;;;;5078545;28;20055;-61
2023/01/09 14:30:21;;;;;;;5.93;3.75;;;;;;;;;;5081243;28;20510;-61
2023/01/09 14:32:55;;;;;;;3.83;3.15;;;;;;;;;;5080935;28;20044;-60
2023/01/09 14:35:32;;;;;;;6.25;4.50;;;;;;;;;;5083629;28;20048;-60
2023/01/09 14:38:02;;;;;;;6.00;4.30;;;;;;;;;;5085353;28;20044;-61
2023/01/09 14:40:28;;;;;;;3.35;2.97;;;;;;;;;;5085085;28;20047;-60
2023/01/09 14:42:56;;;;;;;4.80;3.42;;;;;;;;;;5085396;28;20044;-60
2023/01/09 14:45:24;;;;;;;4.00;3.00;;;;;;;;;;5083802;28;20047;-61
2023/01/09 14:47:50;;;;;;;;;;;;;;;;;;5085656;28;20071;-61
2023/01/09 14:50:16;;;;;;;;;;;;;;;;;;5084952;28;20107;-61
2023/01/09 14:52:42;;;;;;;;;;;;;;;;;;5085007;28;20271;-61
2023/01/09 14:55:08;;;;;;;;;;;;;;;;;;5085242;28;19931;-61
2023/01/09 14:57:34;;;;;;;;;;;;;;;;;;5080825;28;20134;-62
2023/01/09 14:59:59;;;;;;;;;;;;;;;;;;5084766;28;20085;-60
2023/01/09 15:02:26;;;;;;;;;;;;;;;;;;5086794;28;20014;-62
2023/01/09 15:04:52;;;;;;;;;;;;;;;;;;5082472;28;20131;-63
2023/01/09 15:07:20;;;;;;;2.80;2.50;;;;;;;;;;5073929;28;20003;-63
2023/01/09 15:09:47;;;;;;;4.57;2.85;;;;;;;;;;5080765;28;20048;-63
2023/01/09 15:12:18;;;;;;;4.68;2.85;;;;;;;;;;5069384;28;20503;-62
2023/01/09 15:14:45;;;;;;;4.78;2.25;;;;;;;;;;5069136;28;20416;-62
2023/01/09 15:17:22;;;;;;;3.50;2.40;;;;;;;;;;5069130;28;20123;-62
2023/01/09 15:19:48;;;;;;;3.30;2.47;;;;;;;;;;5072897;28;20128;-62
2023/01/09 15:22:29;;;;;;;3.38;1.90;;;;;;;;;;5077993;28;20048;-63
2023/01/09 15:24:56;;;;;;;2.53;1.63;;;;;;;;;;5069796;28;20047;-62
2023/01/09 15:27:22;;;;;;;1.35;1.20;;;;;;;;;;5068098;28;20044;-63
2023/01/09 15:29:48;;;;;;;1.27;1.10;;;;;;;;;;5082755;28;20048;-63
2023/01/09 15:32:16;;;;;;;7.55;2.17;;;;;;;;;;5070864;28;20094;-62